Time;durP1;ratioP1;P1;durP2;ratioP2;P2;SDS_P1;SDS_P2;PMS_P1;PMS_P2;Temp;Humidity;BMP_temperature;BMP_pressure;BME280_temperature;BME280_humidity;BME280_pressure;Samples;Min_cycle;Max_cycle;Signal;HPM_P1;HPM_P2
2022/06/29 00:02:12;;;;;;;8.38;7.47;;;;;;;19.31;90.33;96830.03;1728913;81;21411;-84
2022/06/29 00:04:38;;;;;;;8.10;7.35;;;;;;;19.33;90.04;96839.82;1730587;81;21007;-83
2022/06/29 00:07:04;;;;;;;8.73;7.75;;;;;;;19.31;89.89;96837.41;1707721;83;21396;-84
2022/06/29 00:09:30;;;;;;;8.43;7.58;;;;;;;19.27;90.18;96830.20;1737504;80;20995;-84
2022/06/29 00:11:55;;;;;;;7.35;6.65;;;;;;;19.26;90.22;96831.22;1732716;81;20943;-83
2022/06/29 00:14:21;;;;;;;8.85;8.00;;;;;;;19.25;90.04;96830.94;1724040;81;21006;-83
2022/06/29 00:16:47;;;;;;;8.35;7.47;;;;;;;19.25;89.93;96824.35;1721981;81;21357;-83
2022/06/29 00:19:13;;;;;;;10.03;8.70;;;;;;;19.23;89.86;96814.55;1720012;81;20983;-83
2022/06/29 00:21:38;;;;;;;8.95;8.15;;;;;;;19.22;89.94;96814.27;1739649;81;20907;-83
2022/06/29 00:24:05;;;;;;;8.05;7.35;;;;;;;19.21;90.02;96808.20;1737173;80;20966;-83
2022/06/29 00:26:31;;;;;;;8.10;7.28;;;;;;;19.20;89.90;96806.59;1734583;81;20955;-84
2022/06/29 00:28:56;;;;;;;8.00;7.40;;;;;;;19.19;89.80;96797.86;1724612;81;21046;-84
2022/06/29 00:31:22;;;;;;;9.15;8.30;;;;;;;19.15;89.72;96795.40;1739752;81;20973;-84
2022/06/29 00:33:48;;;;;;;8.68;7.87;;;;;;;19.12;89.64;96801.64;1731378;80;21026;-84
2022/06/29 00:36:13;;;;;;;8.90;7.92;;;;;;;19.08;89.75;96797.34;1697587;83;21073;-84
2022/06/29 00:38:39;;;;;;;9.13;8.23;;;;;;;19.04;89.75;96791.44;1736182;81;21023;-84
2022/06/29 00:41:05;;;;;;;8.80;7.90;;;;;;;18.97;89.73;96783.61;1724624;81;20989;-84
2022/06/29 00:43:41;;;;;;;7.85;7.15;;;;;;;18.94;89.90;96782.75;1719384;81;21310;-84
2022/06/29 00:46:06;;;;;;;9.20;7.20;;;;;;;18.92;89.81;96780.86;1680784;82;21433;-84
2022/06/29 00:48:32;;;;;;;8.10;7.20;;;;;;;18.90;89.81;96781.60;1713147;82;20961;-84
2022/06/29 00:51:00;;;;;;;8.03;7.22;;;;;;;18.88;89.74;96781.83;1713926;82;20961;-84
2022/06/29 00:53:26;;;;;;;8.13;7.33;;;;;;;18.87;89.82;96788.12;1753509;80;20955;-84
2022/06/29 00:55:52;;;;;;;8.55;7.75;;;;;;;18.86;89.85;96793.07;1744531;81;21051;-83
2022/06/29 00:58:18;;;;;;;8.78;7.97;;;;;;;18.90;90.21;96800.03;1721245;83;21384;-84
2022/06/29 01:00:44;;;;;;;9.73;8.28;;;;;;;18.92;90.14;96797.97;1728989;80;21021;-83
2022/06/29 01:03:10;;;;;;;9.38;8.58;;;;;;;18.93;90.21;96790.88;1733113;80;20990;-83
2022/06/29 01:05:36;;;;;;;8.28;7.25;;;;;;;18.93;90.32;96784.30;1707957;83;21045;-83
2022/06/29 01:08:02;;;;;;;9.80;8.63;;;;;;;18.88;90.46;96759.45;1715254;82;21310;-83
2022/06/29 01:10:27;;;;;;;9.13;8.23;;;;;;;18.88;90.46;96759.45;1697161;83;20960;-84
2022/06/29 01:12:53;;;;;;;9.45;7.60;;;;;;;18.87;90.69;96759.64;1677975;84;20970;-83
2022/06/29 01:15:19;;;;;;;8.33;7.53;;;;;;;18.88;90.91;96758.13;1708296;83;21353;-84
2022/06/29 01:17:45;;;;;;;9.10;8.30;;;;;;;18.87;90.92;96758.33;1697687;83;21007;-84
2022/06/29 01:20:11;;;;;;;10.82;8.50;;;;;;;18.91;91.08;96764.77;1721012;83;21009;-85
2022/06/29 01:22:37;;;;;;;8.55;7.78;;;;;;;18.91;90.98;96759.51;1715040;83;21122;-85
2022/06/29 01:25:04;;;;;;;7.30;6.60;;;;;;;18.92;91.06;96759.80;1722724;83;21012;-85
2022/06/29 01:27:30;;;;;;;9.20;8.35;;;;;;;18.93;90.96;96757.97;1719988;82;20978;-83
2022/06/29 01:29:56;;;;;;;11.12;9.13;;;;;;;18.91;90.99;96754.76;1714606;82;20948;-84
2022/06/29 01:32:22;;;;;;;9.00;8.18;;;;;;;18.91;91.05;96760.83;1722638;81;22154;-84
2022/06/29 01:34:48;;;;;;;9.28;8.38;;;;;;;18.91;91.24;96762.14;1684962;83;21106;-84
2022/06/29 01:39:41;;;;;;;10.05;9.05;;;;;;;18.99;91.55;96753.10;1864260;75;22475;-84
2022/06/29 01:42:07;;;;;;;9.78;8.90;;;;;;;18.96;91.51;96758.31;1873222;75;20943;-84
2022/06/29 01:44:34;;;;;;;10.18;9.35;;;;;;;18.96;91.81;96754.36;1855522;76;20935;-84
2022/06/29 01:47:01;;;;;;;9.30;8.50;;;;;;;18.95;91.91;96751.95;1880744;75;21018;-83
2022/06/29 01:49:27;;;;;;;9.20;8.30;;;;;;;18.93;92.00;96742.97;1865513;77;20970;-83
2022/06/29 01:51:55;;;;;;;9.40;8.50;;;;;;;18.92;92.16;96744.00;1841582;75;21082;-85
2022/06/29 01:54:21;;;;;;;9.98;9.13;;;;;;;18.93;92.25;96738.22;1853574;76;21015;-84
2022/06/29 01:56:47;;;;;;;9.18;8.28;;;;;;;18.91;92.18;96737.13;1840861;75;20939;-84
2022/06/29 01:59:13;;;;;;;10.40;9.40;;;;;;;18.95;92.39;96736.16;1846777;76;20978;-83
2022/06/29 02:01:39;;;;;;;11.33;9.85;;;;;;;18.98;92.26;96739.14;1860556;75;20950;-84
2022/06/29 02:04:05;;;;;;;10.15;9.15;;;;;;;18.98;92.09;96731.23;1865359;77;20939;-83
2022/06/29 02:06:31;;;;;;;11.22;10.23;;;;;;;18.99;92.29;96742.05;1865444;76;20962;-84
2022/06/29 02:08:57;;;;;;;10.78;9.70;;;;;;;18.98;92.08;96743.09;1865822;76;21317;-84
2022/06/29 02:11:23;;;;;;;10.20;9.28;;;;;;;18.95;92.13;96731.70;1842621;75;20915;-83
2022/06/29 02:13:49;;;;;;;11.25;10.25;;;;;;;18.91;92.27;96722.65;1865413;77;21295;-83
2022/06/29 02:16:15;;;;;;;11.18;10.10;;;;;;;18.88;92.35;96716.01;1864666;75;20954;-84
2022/06/29 02:18:42;;;;;;;10.80;9.90;;;;;;;18.87;92.41;96728.88;1874149;76;20911;-84
2022/06/29 02:21:10;;;;;;;11.33;10.32;;;;;;;18.86;92.58;96727.25;1848720;75;21031;-83
2022/06/29 02:23:35;;;;;;;10.38;9.58;;;;;;;18.85;92.56;96720.90;1880219;75;21011;-83
2022/06/29 02:26:01;;;;;;;10.78;9.70;;;;;;;18.84;92.73;96714.03;1846899;75;21338;-83
2022/06/29 02:28:27;;;;;;;11.60;9.88;;;;;;;18.84;92.48;96716.66;1792455;79;20935;-83
2022/06/29 02:36:21;;;;;;;10.68;9.63;;;;;;;18.82;92.62;96709.51;1809741;77;20995;-83
2022/06/29 02:38:47;;;;;;;10.38;9.58;;;;;;;18.84;92.78;96705.62;1805211;78;21006;-84
2022/06/29 02:41:13;;;;;;;9.95;9.05;;;;;;;18.86;92.66;96708.02;1799913;78;20971;-84
2022/06/29 02:43:39;;;;;;;9.78;8.95;;;;;;;18.88;92.72;96709.94;1809439;78;21006;-84
2022/06/29 02:46:04;;;;;;;9.50;8.70;;;;;;;18.90;92.56;96706.56;1839534;77;21266;-84
2022/06/29 02:48:32;;;;;;;10.05;9.13;;;;;;;18.89;92.23;96708.39;1811878;77;21003;-84
2022/06/29 02:50:58;;;;;;;10.05;9.18;;;;;;;18.86;92.14;96704.07;1815631;78;21465;-83
2022/06/29 02:53:25;;;;;;;10.85;9.80;;;;;;;18.80;92.22;96697.09;1814760;78;20943;-83
2022/06/29 02:55:51;;;;;;;10.82;9.83;;;;;;;18.76;92.35;96696.74;1798181;77;20994;-83
2022/06/29 02:58:17;;;;;;;10.32;9.43;;;;;;;18.77;92.58;96693.08;1802421;78;20954;-84
2022/06/29 03:00:42;;;;;;;11.10;10.03;;;;;;;18.79;92.59;96694.17;1825258;77;20935;-84
2022/06/29 03:03:08;;;;;;;11.18;9.80;;;;;;;18.81;92.62;96683.70;1813133;78;21407;-84
2022/06/29 03:05:34;;;;;;;10.15;9.25;;;;;;;18.84;92.57;96682.44;1812276;79;21326;-84
2022/06/29 03:07:59;;;;;;;10.63;9.73;;;;;;;18.87;92.71;96681.98;1803383;78;21012;-83
2022/06/29 03:10:25;;;;;;;11.00;10.10;;;;;;;18.90;92.53;96681.55;1815129;77;21268;-84
2022/06/29 03:12:51;;;;;;;10.82;9.78;;;;;;;18.93;92.47;96671.08;1816344;78;20965;-84
2022/06/29 03:15:18;;;;;;;10.38;9.48;;;;;;;18.96;92.78;96662.72;1804168;79;21020;-84
2022/06/29 03:17:43;;;;;;;11.03;10.05;;;;;;;18.98;92.80;96660.14;1747905;81;20998;-84
2022/06/29 03:20:10;;;;;;;11.97;10.88;;;;;;;18.98;92.84;96656.70;1737131;81;20974;-83
2022/06/29 03:22:36;;;;;;;11.97;10.88;;;;;;;19.02;93.27;96657.33;1767591;80;20950;-84
2022/06/29 03:25:02;;;;;;;12.18;11.03;;;;;;;19.09;93.46;96655.92;1753780;79;20990;-84
2022/06/29 03:27:28;;;;;;;11.00;9.90;;;;;;;19.12;93.35;96653.63;1759272;81;20978;-84
2022/06/29 03:29:54;;;;;;;11.95;10.93;;;;;;;19.16;93.50;96648.70;1769234;79;21013;-83
2022/06/29 03:32:19;;;;;;;11.53;10.45;;;;;;;19.23;93.92;96648.08;1775393;81;21396;-83
2022/06/29 03:34:46;;;;;;;13.98;12.55;;;;;;;19.31;93.76;96653.50;1760796;80;21140;-83
2022/06/29 03:37:11;;;;;;;12.20;11.20;;;;;;;19.39;94.20;96652.66;1751278;79;21392;-84
2022/06/29 03:39:38;;;;;;;12.68;11.55;;;;;;;19.46;93.94;96651.20;1812413;77;21076;-83
2022/06/29 03:42:04;;;;;;;11.43;10.32;;;;;;;19.50;93.92;96647.87;1801271;78;20977;-83
2022/06/29 03:44:30;;;;;;;10.82;9.65;;;;;;;19.52;93.58;96651.59;1815358;78;21301;-84
2022/06/29 03:46:55;;;;;;;10.75;9.85;;;;;;;19.48;93.73;96641.23;1808048;78;20903;-83
2022/06/29 03:49:21;;;;;;;13.45;12.25;;;;;;;19.48;93.73;96641.23;1809705;78;20951;-83
2022/06/29 03:51:47;;;;;;;14.10;12.80;;;;;;;19.60;94.13;96653.11;1791795;78;20961;-83
2022/06/29 03:54:12;;;;;;;14.10;12.68;;;;;;;19.68;94.54;96653.53;1777606;79;20977;-83
2022/06/29 03:56:39;;;;;;;13.43;11.95;;;;;;;19.78;94.39;96653.76;1793300;79;21010;-84
2022/06/29 03:59:05;;;;;;;11.78;10.68;;;;;;;19.85;93.83;96660.72;1807363;78;21045;-84
2022/06/29 04:01:31;;;;;;;12.07;10.63;;;;;;;19.91;94.28;96660.61;1812763;78;21494;-83
2022/06/29 04:03:56;;;;;;;12.25;11.05;;;;;;;19.90;93.78;96654.25;1786241;79;20992;-84
2022/06/29 04:06:22;;;;;;;12.63;11.43;;;;;;;19.88;93.45;96652.38;1805798;78;20929;-84
2022/06/29 04:08:48;;;;;;;11.60;10.55;;;;;;;19.91;93.69;96655.86;1777585;79;21001;-84
2022/06/29 04:13:58;;;;;;;11.93;10.93;;;;;;;20.03;93.53;96659.27;1779308;78;21341;-85
2022/06/29 04:16:24;;;;;;;16.15;14.55;;;;;;;20.12;93.86;96651.25;1807532;78;20918;-84
2022/06/29 04:18:52;;;;;;;15.98;14.58;;;;;;;20.17;93.35;96656.61;1806133;79;20896;-84
2022/06/29 04:21:17;;;;;;;15.98;14.38;;;;;;;20.24;93.20;96661.25;1805524;78;21019;-84
2022/06/29 04:23:45;;;;;;;15.75;14.15;;;;;;;20.35;93.50;96657.77;1776351;78;21050;-84
2022/06/29 04:26:11;;;;;;;15.43;13.83;;;;;;;20.39;92.84;96654.13;1793411;79;21973;-83
2022/06/29 04:28:37;;;;;;;14.75;13.30;;;;;;;20.43;92.83;96650.52;1775489;78;20961;-84
2022/06/29 04:31:03;;;;;;;13.50;12.18;;;;;;;20.48;93.05;96652.72;1789659;78;20985;-83
2022/06/29 04:33:29;;;;;;;11.88;10.78;;;;;;;20.52;92.68;96662.30;1785468;78;21341;-83
2022/06/29 04:35:54;;;;;;;14.38;12.98;;;;;;;20.57;92.58;96663.70;1777926;78;20998;-83
2022/06/29 04:38:21;;;;;;;14.25;12.85;;;;;;;20.62;92.71;96658.50;1774044;79;21418;-84
2022/06/29 04:40:47;;;;;;;12.78;11.68;;;;;;;20.64;92.25;96653.27;1767646;80;21008;-83
2022/06/29 04:43:12;;;;;;;11.95;10.95;;;;;;;20.64;91.92;96648.50;1783860;79;20989;-83
2022/06/29 04:48:22;;;;;;;12.47;11.28;;;;;;;20.65;91.28;96644.82;1791968;79;21035;-83
2022/06/29 04:50:48;;;;;;;13.18;12.00;;;;;;;20.73;91.80;96640.48;1770184;80;21094;-84
2022/06/29 04:53:14;;;;;;;12.23;11.12;;;;;;;20.78;91.67;96640.55;1773528;79;20900;-84
2022/06/29 04:55:40;;;;;;;13.00;11.90;;;;;;;20.85;91.62;96646.49;1786559;79;20976;-83
2022/06/29 04:58:05;;;;;;;12.95;11.85;;;;;;;20.90;91.72;96643.92;1789495;79;21070;-83
2022/06/29 05:00:31;;;;;;;14.00;12.60;;;;;;;20.89;91.15;96637.56;1770960;79;21031;-84
2022/06/29 05:02:57;;;;;;;14.23;12.90;;;;;;;20.87;91.04;96640.97;1779010;79;20982;-84
2022/06/29 05:05:22;;;;;;;14.23;12.93;;;;;;;20.85;90.97;96638.57;1776361;79;20971;-84
2022/06/29 05:07:48;;;;;;;14.85;13.45;;;;;;;20.87;91.07;96633.84;1773401;79;20955;-83
2022/06/29 05:10:15;;;;;;;15.10;13.70;;;;;;;20.89;90.99;96647.61;1780521;79;21504;-83
2022/06/29 05:12:41;;;;;;;13.20;11.90;;;;;;;20.89;91.01;96644.97;1785592;79;21259;-83
2022/06/29 05:15:08;;;;;;;14.38;12.60;;;;;;;20.87;91.10;96654.17;1766456;78;21356;-84
2022/06/29 05:17:36;;;;;;;15.72;14.23;;;;;;;20.91;91.26;96666.66;1794132;78;21352;-84
2022/06/29 05:20:05;;;;;;;15.05;13.20;;;;;;;20.97;90.83;96667.00;1785646;78;21018;-84
2022/06/29 05:22:30;;;;;;;11.90;10.80;;;;;;;21.02;91.08;96662.34;1766450;78;21074;-83
2022/06/29 05:24:56;;;;;;;13.03;11.83;;;;;;;21.00;90.83;96664.42;1793280;78;21077;-84
2022/06/29 05:27:23;;;;;;;14.68;13.22;;;;;;;20.93;90.64;96650.04;1788979;78;21155;-83
2022/06/29 05:29:48;;;;;;;11.68;10.60;;;;;;;21.00;90.46;96666.27;1786691;78;21015;-84
2022/06/29 05:32:14;;;;;;;10.82;9.88;;;;;;;21.01;90.70;96666.03;1801034;78;21090;-84
2022/06/29 05:34:40;;;;;;;14.25;12.93;;;;;;;21.08;90.97;96664.53;1780753;78;21424;-84
2022/06/29 05:37:05;;;;;;;13.62;12.53;;;;;;;21.16;90.71;96664.14;1789611;80;21045;-84
2022/06/29 05:39:32;;;;;;;14.28;13.00;;;;;;;21.21;90.74;96662.89;1776156;79;20991;-83
2022/06/29 05:41:58;;;;;;;14.00;12.70;;;;;;;21.24;90.61;96660.58;1756924;81;20961;-84
2022/06/29 05:44:23;;;;;;;13.88;12.68;;;;;;;21.30;90.50;96667.25;1765738;81;21041;-84
2022/06/29 05:46:49;;;;;;;12.85;11.63;;;;;;;21.33;90.55;96658.34;1769238;80;20980;-84
2022/06/29 05:49:15;;;;;;;12.28;11.28;;;;;;;21.38;90.59;96645.71;1745397;80;21033;-84
2022/06/29 05:51:41;;;;;;;13.32;11.90;;;;;;;21.43;90.40;96641.80;1757604;80;21771;-83
2022/06/29 05:54:07;;;;;;;14.13;12.68;;;;;;;21.45;89.82;96647.13;1742459;80;20973;-84
2022/06/29 05:56:33;;;;;;;12.45;11.30;;;;;;;21.46;89.43;96642.11;1739330;80;21024;-84
2022/06/29 05:58:59;;;;;;;12.90;11.80;;;;;;;21.50;89.66;96642.45;1738831;80;21022;-84
2022/06/29 06:01:25;;;;;;;13.00;11.90;;;;;;;21.50;89.06;96637.95;1759838;80;21009;-84
2022/06/29 06:03:50;;;;;;;13.60;12.20;;;;;;;21.55;89.14;96630.61;1730502;80;21352;-84
2022/06/29 06:06:16;;;;;;;13.60;12.40;;;;;;;21.60;88.57;96629.86;1735418;81;21041;-84
2022/06/29 06:08:42;;;;;;;12.75;11.57;;;;;;;21.68;89.85;96628.93;1743445;80;21574;-83
2022/06/29 06:11:07;;;;;;;14.68;11.90;;;;;;;21.73;88.70;96630.83;1747548;80;20966;-84
2022/06/29 06:13:33;;;;;;;13.45;12.20;;;;;;;21.80;89.02;96627.47;1733465;80;20969;-84
2022/06/29 06:15:59;;;;;;;13.83;12.53;;;;;;;21.85;88.32;96630.98;1732165;80;21414;-83
2022/06/29 06:18:25;;;;;;;12.90;11.70;;;;;;;21.95;88.15;96638.75;1760692;80;21495;-83
2022/06/29 06:20:50;;;;;;;13.68;12.40;;;;;;;21.99;88.20;96638.55;1752978;80;21016;-84
2022/06/29 06:23:16;;;;;;;14.05;12.82;;;;;;;22.10;87.44;96640.27;1739946;80;20977;-84
2022/06/29 06:25:42;;;;;;;15.65;14.23;;;;;;;22.23;87.48;96645.70;1742236;80;21466;-84
2022/06/29 06:28:08;;;;;;;14.55;13.25;;;;;;;22.34;87.49;96635.51;1756339;80;21008;-83
2022/06/29 06:30:34;;;;;;;14.38;12.88;;;;;;;22.50;87.45;96636.45;1733318;80;21395;-83
2022/06/29 06:32:59;;;;;;;13.62;12.33;;;;;;;22.62;87.45;96643.20;1740333;80;20957;-83
2022/06/29 06:35:25;;;;;;;13.25;12.05;;;;;;;22.69;86.24;96634.50;1734004;81;20972;-84
2022/06/29 06:37:52;;;;;;;13.50;12.10;;;;;;;22.81;86.00;96647.59;1734637;81;20973;-83
2022/06/29 06:43:03;;;;;;;14.70;13.40;;;;;;;23.05;84.32;96638.78;1758479;79;20951;-83
2022/06/29 06:45:29;;;;;;;16.37;14.78;;;;;;;23.09;83.94;96645.69;1769142;79;20999;-83
2022/06/29 06:47:55;;;;;;;15.55;14.15;;;;;;;23.16;83.98;96644.44;1771499;79;21323;-83
2022/06/29 06:50:26;;;;;;;15.35;13.95;;;;;;;23.26;84.08;96645.01;1768726;79;20983;-84
2022/06/29 06:52:52;;;;;;;14.65;13.35;;;;;;;23.36;84.22;96641.11;1779249;79;21313;-84
2022/06/29 06:55:20;;;;;;;18.37;15.40;;;;;;;23.53;84.23;96644.91;1769960;79;21330;-84
2022/06/29 06:57:46;;;;;;;15.90;14.40;;;;;;;23.57;82.91;96646.02;1785642;79;21003;-83
2022/06/29 07:00:13;;;;;;;14.60;13.20;;;;;;;23.61;82.86;96642.61;1773695;79;21014;-83
2022/06/29 07:02:39;;;;;;;14.73;13.53;;;;;;;23.60;82.13;96647.65;1762281;79;20984;-83
2022/06/29 07:05:05;;;;;;;15.65;14.20;;;;;;;23.60;81.95;96649.50;1771364;79;20932;-83
2022/06/29 07:07:31;;;;;;;14.83;13.32;;;;;;;23.64;82.51;96648.72;1757604;79;21020;-83
2022/06/29 07:09:56;;;;;;;15.05;13.62;;;;;;;23.67;81.83;96647.41;1766356;79;21054;-83
2022/06/29 07:12:22;;;;;;;14.50;13.15;;;;;;;23.66;80.90;96649.78;1757571;79;21464;-83
2022/06/29 07:14:48;;;;;;;16.32;14.83;;;;;;;23.70;81.11;96658.02;1757620;79;20959;-82
2022/06/29 07:17:13;;;;;;;16.85;15.35;;;;;;;23.82;80.99;96652.78;1760897;79;20987;-82
2022/06/29 07:19:39;;;;;;;16.02;13.32;;;;;;;23.90;81.15;96651.47;1769397;79;20972;-82
2022/06/29 07:22:05;;;;;;;14.45;12.93;;;;;;;23.95;81.44;96656.81;1761430;79;20995;-83
2022/06/29 07:24:32;;;;;;;14.45;13.08;;;;;;;24.02;81.37;96654.70;1756557;79;21038;-83
2022/06/29 07:26:58;;;;;;;14.95;13.45;;;;;;;24.11;80.06;96655.02;1763850;79;22155;-82
2022/06/29 07:29:24;;;;;;;15.20;13.88;;;;;;;24.19;79.89;96650.52;1758700;79;20998;-83
2022/06/29 07:31:50;;;;;;;14.47;13.18;;;;;;;24.24;79.85;96652.67;1760431;79;20954;-84
2022/06/29 07:34:16;;;;;;;16.07;14.23;;;;;;;24.24;77.54;96653.17;1759871;79;21021;-83
2022/06/29 07:36:42;;;;;;;14.38;12.93;;;;;;;24.16;78.55;96652.37;1765332;79;21009;-84
2022/06/29 07:39:07;;;;;;;15.55;14.15;;;;;;;24.21;78.78;96651.84;1765199;79;21188;-83
2022/06/29 07:41:33;;;;;;;14.93;13.50;;;;;;;24.26;78.68;96645.77;1765119;79;20975;-83
2022/06/29 07:43:59;;;;;;;14.95;13.22;;;;;;;24.28;78.37;96647.63;1765182;79;21325;-83
2022/06/29 07:46:25;;;;;;;14.47;13.18;;;;;;;24.27;78.76;96650.02;1782520;78;21002;-83
2022/06/29 07:48:51;;;;;;;14.45;13.08;;;;;;;24.23;78.53;96645.73;1783781;78;20984;-85
2022/06/29 07:51:17;;;;;;;14.50;13.05;;;;;;;24.21;78.53;96649.19;1794606;78;20918;-85
2022/06/29 07:53:43;;;;;;;14.03;12.75;;;;;;;24.19;78.01;96640.69;1788653;78;20945;-85
2022/06/29 07:56:08;;;;;;;15.08;13.80;;;;;;;24.18;77.94;96640.95;1792898;78;20970;-85
2022/06/29 07:58:34;;;;;;;13.93;12.73;;;;;;;24.19;77.58;96636.70;1787990;78;21029;-85
2022/06/29 08:01:00;;;;;;;15.00;13.60;;;;;;;24.25;77.35;96635.67;1784877;78;21364;-86
2022/06/29 08:03:25;;;;;;;15.98;14.47;;;;;;;24.28;78.17;96637.54;1790403;78;20950;-85
2022/06/29 08:05:51;;;;;;;14.53;13.43;;;;;;;24.28;77.92;96634.34;1783109;78;20969;-85
2022/06/29 08:08:17;;;;;;;13.62;12.33;;;;;;;24.25;78.64;96618.95;1779764;78;21297;-84
2022/06/29 08:10:43;;;;;;;14.20;12.90;;;;;;;24.35;78.75;96621.64;1782353;78;21021;-84
2022/06/29 08:13:08;;;;;;;13.22;12.05;;;;;;;24.45;78.62;96622.98;1793624;78;20962;-84
2022/06/29 08:15:35;;;;;;;14.43;13.05;;;;;;;24.60;79.25;96627.52;1800513;79;20922;-85
2022/06/29 08:18:01;;;;;;;15.45;14.15;;;;;;;24.75;78.71;96619.56;1781340;78;20958;-84
2022/06/29 08:20:30;;;;;;;14.60;13.30;;;;;;;24.92;77.85;96622.48;1780815;78;20974;-85
2022/06/29 08:22:56;;;;;;;13.88;12.68;;;;;;;24.99;77.43;96614.48;1802425;78;20954;-85
2022/06/29 08:25:22;;;;;;;13.85;12.65;;;;;;;25.10;78.10;96608.13;1803379;78;21029;-86
2022/06/29 08:27:57;;;;;;;14.83;13.50;;;;;;;25.17;76.83;96603.85;1791077;78;21397;-84
2022/06/29 08:30:21;;;;;;;14.13;12.82;;;;;;;25.29;77.38;96608.35;1788369;78;21303;-84
2022/06/29 08:32:47;;;;;;;13.95;12.65;;;;;;;25.48;77.17;96604.58;1791690;78;21084;-84
2022/06/29 08:35:14;;;;;;;14.30;12.93;;;;;;;25.58;75.33;96599.23;1781386;78;21046;-83
2022/06/29 08:37:41;;;;;;;15.83;14.25;;;;;;;25.68;75.82;96601.06;1791853;78;20981;-84
2022/06/29 08:40:08;;;;;;;15.15;13.78;;;;;;;25.90;75.14;96598.06;1794765;78;21017;-83
2022/06/29 08:42:36;;;;;;;15.55;13.98;;;;;;;25.99;74.48;96606.52;1772343;79;21004;-84
2022/06/29 08:45:02;;;;;;;14.20;12.90;;;;;;;25.99;74.48;96606.52;1789572;78;21254;-85
2022/06/29 08:47:28;;;;;;;14.00;12.82;;;;;;;26.09;74.73;96606.21;1775442;78;20952;-85
2022/06/29 08:49:56;;;;;;;15.20;13.70;;;;;;;26.12;71.86;96599.00;1776917;78;21428;-84
2022/06/29 08:52:21;;;;;;;15.90;14.15;;;;;;;26.12;72.73;96609.11;1776705;78;20942;-83
2022/06/29 08:54:48;;;;;;;14.53;13.32;;;;;;;26.22;72.90;96605.08;1782368;78;21045;-84
2022/06/29 08:57:14;;;;;;;14.47;13.18;;;;;;;26.40;73.99;96606.86;1784749;78;21081;-84
2022/06/29 08:59:39;;;;;;;14.18;13.08;;;;;;;26.55;73.75;96602.22;1782104;78;20998;-83
2022/06/29 09:02:05;;;;;;;13.68;12.35;;;;;;;26.71;73.07;96600.23;1780245;78;21346;-83
2022/06/29 09:04:31;;;;;;;14.43;13.13;;;;;;;26.88;73.41;96603.28;1783420;78;21424;-83
2022/06/29 09:06:57;;;;;;;14.05;12.85;;;;;;;26.93;70.40;96603.23;1787230;78;20931;-85
2022/06/29 09:09:23;;;;;;;13.85;12.58;;;;;;;27.05;71.58;96606.89;1789808;78;21377;-82
2022/06/29 09:11:51;;;;;;;15.38;13.83;;;;;;;27.05;71.58;96606.89;1784045;78;20919;-84
2022/06/29 09:14:22;;;;;;;14.07;12.90;;;;;;;27.16;70.79;96610.23;1787582;78;21313;-84
2022/06/29 09:16:59;;;;;;;14.25;13.00;;;;;;;27.25;71.60;96600.55;1786136;78;20944;-85
2022/06/29 09:19:29;;;;;;;13.50;12.25;;;;;;;27.34;68.91;96600.20;1782109;78;20991;-83
2022/06/29 09:21:57;;;;;;;12.97;11.83;;;;;;;27.32;71.18;96599.66;1792940;78;21006;-83
2022/06/29 09:24:28;;;;;;;14.98;13.68;;;;;;;27.44;71.50;96592.61;1787897;78;20983;-84
2022/06/29 09:26:58;;;;;;;14.65;13.35;;;;;;;27.53;69.22;96592.25;1788808;78;20999;-84
2022/06/29 09:29:27;;;;;;;13.53;12.33;;;;;;;27.55;68.69;96590.62;1783890;78;20999;-85
2022/06/29 09:32:11;;;;;;;14.25;13.00;;;;;;;27.56;69.65;96586.34;1788319;78;21325;-82
2022/06/29 09:34:51;;;;;;;14.28;12.98;;;;;;;27.62;69.32;96586.52;1790211;78;20991;-84
2022/06/29 09:37:18;;;;;;;13.68;12.40;;;;;;;27.55;68.63;96586.09;1781876;78;21074;-84
2022/06/29 09:39:54;;;;;;;14.15;13.00;;;;;;;27.66;70.68;96588.10;1794098;78;21025;-84
2022/06/29 09:42:24;;;;;;;13.28;12.07;;;;;;;27.73;69.32;96584.02;1786897;80;21000;-83
2022/06/29 09:44:51;;;;;;;13.35;12.03;;;;;;;27.75;67.85;96585.06;1784291;79;21171;-84
2022/06/29 09:47:19;;;;;;;14.50;13.20;;;;;;;27.78;69.41;96578.61;1765759;80;21398;-83
2022/06/29 09:49:48;;;;;;;14.45;13.15;;;;;;;27.79;67.33;96580.20;1784241;79;21002;-85
2022/06/29 09:52:17;;;;;;;14.25;12.98;;;;;;;27.73;66.86;96572.55;1807582;79;21012;-85
2022/06/29 09:54:54;;;;;;;14.13;13.00;;;;;;;27.73;67.54;96576.02;1811258;78;20977;-85
2022/06/29 09:57:22;;;;;;;15.38;14.18;;;;;;;27.77;68.62;96561.00;1785120;79;20948;-86
2022/06/29 10:02:43;;;;;;;15.65;14.13;;;;;;;28.06;67.66;96564.09;1792375;79;21331;-86
2022/06/29 10:05:14;;;;;;;15.28;13.98;;;;;;;28.09;66.82;96564.84;1792896;79;20996;-85
2022/06/29 10:07:45;;;;;;;14.05;12.95;;;;;;;28.14;68.34;96569.31;1803969;78;20946;-86
2022/06/29 10:10:15;;;;;;;13.48;12.43;;;;;;;28.20;67.81;96570.30;1788187;78;21012;-85
2022/06/29 10:16:06;;;;;;;14.60;13.30;;;;;;;28.34;66.78;96561.05;1782631;79;20973;-85
2022/06/29 10:18:54;;;;;;;13.80;12.63;;;;;;;28.46;68.54;96560.58;1786883;79;21391;-85
2022/06/29 10:21:27;;;;;;;12.88;11.85;;;;;;;28.53;66.40;96564.48;1751420;80;21023;-86
2022/06/29 10:23:56;;;;;;;14.28;13.08;;;;;;;28.55;67.19;96554.84;1779779;79;21046;-85
2022/06/29 10:26:37;;;;;;;13.53;12.35;;;;;;;28.50;64.26;96556.27;1747789;79;21027;-85
2022/06/29 10:29:12;;;;;;;14.43;13.13;;;;;;;28.41;66.54;96560.12;1777224;78;21412;-86
2022/06/29 10:31:59;;;;;;;13.83;12.50;;;;;;;28.47;67.16;96559.49;1781076;79;20998;-85
2022/06/29 10:34:34;;;;;;;13.48;12.37;;;;;;;28.49;66.04;96559.48;1779334;79;22352;-84
2022/06/29 10:37:12;;;;;;;13.78;12.68;;;;;;;28.57;65.82;96562.81;1788374;79;20952;-85
2022/06/29 10:39:49;;;;;;;13.98;12.68;;;;;;;28.63;66.24;96560.30;1780979;79;21098;-84
2022/06/29 10:45:19;;;;;;;13.45;12.15;;;;;;;28.67;63.58;96559.19;1792736;78;21127;-87
2022/06/29 10:47:57;;;;;;;13.53;12.35;;;;;;;28.70;65.71;96556.72;1759985;79;20952;-84
2022/06/29 10:50:25;;;;;;;12.95;11.85;;;;;;;28.74;66.63;96552.11;1773562;78;21097;-84
2022/06/29 10:52:57;;;;;;;13.55;12.35;;;;;;;28.79;66.97;96554.69;1792610;78;21032;-84
2022/06/29 10:55:25;;;;;;;12.75;11.57;;;;;;;28.87;66.42;96550.84;1798033;79;21693;-84
2022/06/29 10:57:52;;;;;;;13.93;12.65;;;;;;;28.97;64.54;96550.67;1805615;77;21296;-83
2022/06/29 11:00:22;;;;;;;13.22;12.03;;;;;;;29.07;65.83;96552.34;1797311;77;21037;-83
2022/06/29 11:02:47;;;;;;;13.45;12.15;;;;;;;29.17;64.42;96554.84;1800684;78;21486;-83
2022/06/29 11:05:13;;;;;;;12.15;11.15;;;;;;;29.18;65.13;96548.41;1800673;77;20981;-83
2022/06/29 11:13:25;;;;;;;14.38;13.18;;;;;;;29.32;64.48;96542.27;1797443;79;21289;-83
2022/06/29 11:15:53;;;;;;;14.43;13.22;;;;;;;29.38;63.48;96542.41;1789473;79;22179;-83
2022/06/29 11:18:24;;;;;;;13.78;12.58;;;;;;;29.42;63.76;96534.81;1788501;78;21352;-84
2022/06/29 11:20:51;;;;;;;14.10;12.73;;;;;;;29.50;63.53;96538.17;1775715;79;20936;-85
2022/06/29 11:23:19;;;;;;;12.80;11.70;;;;;;;29.49;62.27;96541.15;1778714;79;20992;-84
2022/06/29 11:25:47;;;;;;;13.48;12.35;;;;;;;29.48;61.77;96538.23;1766172;81;20993;-83
2022/06/29 11:28:16;;;;;;;14.18;13.05;;;;;;;29.40;61.34;96542.34;1785596;78;20935;-83
2022/06/29 11:30:41;;;;;;;12.20;11.22;;;;;;;29.33;61.20;96537.16;1788018;79;20910;-84
2022/06/29 11:33:12;;;;;;;12.98;11.80;;;;;;;29.25;61.40;96533.28;1786933;80;21354;-84
2022/06/29 11:35:38;;;;;;;13.28;12.13;;;;;;;29.31;62.97;96527.30;1789044;80;20969;-83
2022/06/29 11:38:06;;;;;;;13.40;12.30;;;;;;;29.38;62.55;96530.36;1780630;79;21066;-85
2022/06/29 11:40:38;;;;;;;12.88;11.88;;;;;;;29.40;61.89;96533.53;1784249;79;21009;-84
2022/06/29 11:43:10;;;;;;;12.95;11.78;;;;;;;29.44;61.87;96531.83;1761864;80;20981;-84
2022/06/29 11:45:47;;;;;;;13.32;12.18;;;;;;;29.51;62.64;96534.40;1751623;81;21062;-83
2022/06/29 11:48:23;;;;;;;12.95;11.75;;;;;;;29.68;62.42;96534.33;1759632;81;21059;-82
2022/06/29 11:50:56;;;;;;;12.47;11.25;;;;;;;29.70;62.32;96520.88;1743906;81;20996;-84
2022/06/29 11:53:48;;;;;;;13.05;11.93;;;;;;;29.85;62.81;96529.93;1750527;81;21036;-83